Time;durP1;ratioP1;P1;durP2;ratioP2;P2;SDS_P1;SDS_P2;PMS_P1;PMS_P2;Temp;Humidity;BMP_temperature;BMP_pressure;BME280_temperature;BME280_humidity;BME280_pressure;Samples;Min_cycle;Max_cycle;Signal;HPM_P1;HPM_P2
2022/04/26 03:36:11;;;;;;;4.30;2.42;;;;;;;;;;5280558;28;20390;-69
2022/04/26 03:38:43;;;;;;;4.22;2.15;;;;;;;;;;5280907;28;20032;-69
2022/04/26 03:41:15;;;;;;;7.93;3.05;;;;;;;;;;5281367;28;20089;-69
2022/04/26 03:43:46;;;;;;;6.35;2.60;;;;;;;;;;5279904;28;20487;-69
2022/04/26 03:46:17;;;;;;;4.80;2.55;;;;;;;;;;5281308;28;20391;-69
2022/04/26 03:48:48;;;;;;;6.10;2.70;;;;;;;;;;5279773;28;20269;-69
2022/04/26 03:51:19;;;;;;;4.85;2.75;;;;;;;;;;5281013;28;20029;-70
2022/04/26 03:53:51;;;;;;;3.54;1.66;;;;;;;;;;5280685;28;20467;-69
2022/04/26 03:56:22;;;;;;;4.35;2.83;;;;;;;;;;5279741;28;20025;-70
2022/04/26 03:58:53;;;;;;;5.10;2.38;;;;;;;;;;5280916;28;20263;-69
2022/04/26 04:01:24;;;;;;;7.45;3.10;;;;;;;;;;5280156;28;20063;-70
2022/04/26 04:03:55;;;;;;;5.86;2.94;;;;;;;;;;5280183;28;20617;-69
2022/04/26 04:06:26;;;;;;;5.78;2.86;;;;;;;;;;5280447;28;20027;-69
2022/04/26 04:08:57;;;;;;;6.55;2.40;;;;;;;;;;5280905;28;20588;-69
2022/04/26 04:11:29;;;;;;;4.50;2.28;;;;;;;;;;5279552;28;20320;-69
2022/04/26 04:14:00;;;;;;;5.85;2.65;;;;;;;;;;5280367;28;20303;-69
2022/04/26 04:16:31;;;;;;;6.35;3.00;;;;;;;;;;5280254;28;20048;-69
2022/04/26 04:19:17;;;;;;;6.28;3.05;;;;;;;;;;5280110;28;20024;-69
2022/04/26 04:21:49;;;;;;;5.38;3.35;;;;;;;;;;5280172;28;20020;-69
2022/04/26 04:24:21;;;;;;;10.23;3.03;;;;;;;;;;5279606;28;20024;-69
2022/04/26 04:26:52;;;;;;;4.25;3.13;;;;;;;;;;5281909;28;20020;-69
2022/04/26 04:29:23;;;;;;;5.80;2.85;;;;;;;;;;5290548;28;20124;-70
2022/04/26 04:31:54;;;;;;;4.95;2.97;;;;;;;;;;5303133;28;20281;-69
2022/04/26 04:34:25;;;;;;;5.76;3.30;;;;;;;;;;5304136;28;20395;-69
2022/04/26 04:36:56;;;;;;;9.98;3.92;;;;;;;;;;5304945;28;20023;-69
2022/04/26 04:39:28;;;;;;;7.25;3.40;;;;;;;;;;5303750;28;20266;-69
2022/04/26 04:41:59;;;;;;;7.95;3.55;;;;;;;;;;5305209;28;20040;-69
2022/04/26 04:44:30;;;;;;;5.95;3.65;;;;;;;;;;5304413;28;20028;-69
2022/04/26 04:47:01;;;;;;;7.10;3.47;;;;;;;;;;5304364;28;20012;-69
2022/04/26 04:49:33;;;;;;;6.38;3.70;;;;;;;;;;5304514;28;20492;-69
2022/04/26 04:52:04;;;;;;;6.35;3.40;;;;;;;;;;5304483;28;20069;-69
2022/04/26 04:54:36;;;;;;;9.48;3.65;;;;;;;;;;5304696;28;20036;-69
2022/04/26 04:57:07;;;;;;;6.13;3.15;;;;;;;;;;5305376;28;20396;-69
2022/04/26 04:59:38;;;;;;;7.53;3.40;;;;;;;;;;5303585;28;20063;-68
2022/04/26 05:02:09;;;;;;;6.82;3.88;;;;;;;;;;5305321;28;20024;-69
2022/04/26 05:04:42;;;;;;;6.46;2.58;;;;;;;;;;5304542;28;20304;-69
2022/04/26 05:07:13;;;;;;;5.88;3.67;;;;;;;;;;5304144;28;20470;-69
2022/04/26 05:09:44;;;;;;;6.45;3.67;;;;;;;;;;5304341;28;20091;-68
2022/04/26 05:12:16;;;;;;;5.88;3.45;;;;;;;;;;5304758;28;20273;-69
2022/04/26 05:14:48;;;;;;;6.32;4.53;;;;;;;;;;5303226;28;20044;-69
2022/04/26 05:17:19;;;;;;;7.80;3.45;;;;;;;;;;5304507;28;20153;-69
2022/04/26 05:19:50;;;;;;;7.62;3.06;;;;;;;;;;5304463;28;20274;-70
2022/04/26 05:22:21;;;;;;;7.43;3.38;;;;;;;;;;5303350;28;20021;-70
2022/04/26 05:24:58;;;;;;;7.05;3.35;;;;;;;;;;5304627;28;20266;-70
2022/04/26 05:27:31;;;;;;;5.47;2.95;;;;;;;;;;5303373;28;20119;-70
2022/04/26 05:30:02;;;;;;;8.13;3.88;;;;;;;;;;5304641;28;20454;-71
2022/04/26 05:32:33;;;;;;;7.00;3.65;;;;;;;;;;5304002;28;20054;-70
2022/04/26 05:35:06;;;;;;;6.65;3.50;;;;;;;;;;5303391;28;20054;-71
2022/04/26 05:37:37;;;;;;;7.22;3.40;;;;;;;;;;5303339;28;20031;-71
2022/04/26 05:40:08;;;;;;;9.95;3.90;;;;;;;;;;5303899;28;20459;-71
2022/04/26 05:42:40;;;;;;;5.55;3.08;;;;;;;;;;5302776;28;20467;-71
2022/04/26 05:45:11;;;;;;;11.00;3.85;;;;;;;;;;5304079;28;20020;-69
2022/04/26 05:47:43;;;;;;;10.90;4.35;;;;;;;;;;5303470;28;20012;-70
2022/04/26 05:50:14;;;;;;;7.18;4.43;;;;;;;;;;5303591;28;20016;-71
2022/04/26 05:52:45;;;;;;;6.63;3.58;;;;;;;;;;5303633;28;20125;-70
2022/04/26 05:55:16;;;;;;;7.07;3.80;;;;;;;;;;5304076;28;20294;-70
2022/04/26 05:57:48;;;;;;;5.82;3.50;;;;;;;;;;5302905;28;20020;-70
2022/04/26 06:00:19;;;;;;;7.22;4.30;;;;;;;;;;5303676;28;20480;-70
2022/04/26 06:02:50;;;;;;;11.82;4.57;;;;;;;;;;5303412;28;20374;-70
2022/04/26 06:05:22;;;;;;;13.36;5.66;;;;;;;;;;5304504;28;20429;-70
2022/04/26 06:07:53;;;;;;;7.53;4.05;;;;;;;;;;5303946;28;20012;-71
2022/04/26 06:10:24;;;;;;;6.26;3.70;;;;;;;;;;5302449;28;20030;-70
2022/04/26 06:12:55;;;;;;;5.78;3.70;;;;;;;;;;5303646;28;20008;-70
2022/04/26 06:15:26;;;;;;;7.43;3.90;;;;;;;;;;5303059;28;20490;-70
2022/04/26 06:17:58;;;;;;;6.90;4.05;;;;;;;;;;5302947;28;20020;-70
2022/04/26 06:20:29;;;;;;;10.13;4.00;;;;;;;;;;5303048;28;20377;-70
2022/04/26 06:23:01;;;;;;;6.90;4.15;;;;;;;;;;5303566;28;20262;-70
2022/04/26 06:25:37;;;;;;;8.70;4.90;;;;;;;;;;5302359;28;20454;-70
2022/04/26 06:28:09;;;;;;;8.57;4.30;;;;;;;;;;5303705;28;20080;-70
2022/04/26 06:30:40;;;;;;;7.50;4.25;;;;;;;;;;5301961;28;20012;-70
2022/04/26 06:33:11;;;;;;;8.52;4.32;;;;;;;;;;5303224;28;20375;-69
2022/04/26 06:35:43;;;;;;;7.82;4.45;;;;;;;;;;5302615;28;20381;-70
2022/04/26 06:38:16;;;;;;;10.05;4.22;;;;;;;;;;5302581;28;20255;-70
2022/04/26 06:40:47;;;;;;;9.98;4.53;;;;;;;;;;5302773;28;20027;-70
2022/04/26 06:43:19;;;;;;;6.63;4.22;;;;;;;;;;5303016;28;20008;-71
2022/04/26 06:45:50;;;;;;;8.52;5.07;;;;;;;;;;5302127;28;20040;-69
2022/04/26 06:48:21;;;;;;;7.95;5.18;;;;;;;;;;5302727;28;20016;-70
2022/04/26 06:50:55;;;;;;;7.80;4.93;;;;;;;;;;5302405;28;20023;-69
2022/04/26 06:53:26;;;;;;;9.88;5.38;;;;;;;;;;5301808;28;20331;-70
2022/04/26 06:55:59;;;;;;;13.04;5.26;;;;;;;;;;5303018;28;20028;-69
2022/04/26 06:58:33;;;;;;;9.90;5.72;;;;;;;;;;5302330;28;20024;-70
2022/04/26 07:01:04;;;;;;;11.65;6.32;;;;;;;;;;5302326;28;20027;-70
2022/04/26 07:03:35;;;;;;;8.60;5.40;;;;;;;;;;5302378;28;20012;-70
2022/04/26 07:06:07;;;;;;;6.95;5.57;;;;;;;;;;5302065;28;20487;-70
2022/04/26 07:08:38;;;;;;;8.20;5.50;;;;;;;;;;5301973;28;20297;-71
2022/04/26 07:11:09;;;;;;;15.02;5.76;;;;;;;;;;5302717;28;20038;-71
2022/04/26 07:13:40;;;;;;;10.30;5.32;;;;;;;;;;5301197;28;20091;-70
2022/04/26 07:16:11;;;;;;;9.70;5.22;;;;;;;;;;5302582;28;20301;-70
2022/04/26 07:18:42;;;;;;;7.07;4.90;;;;;;;;;;5302104;28;20246;-70
2022/04/26 07:21:14;;;;;;;9.07;5.07;;;;;;;;;;5301829;28;20379;-69
2022/04/26 07:23:45;;;;;;;9.50;5.13;;;;;;;;;;5301769;28;20270;-70
2022/04/26 07:26:16;;;;;;;10.55;5.65;;;;;;;;;;5302772;28;20439;-70
2022/04/26 07:28:47;;;;;;;7.85;5.20;;;;;;;;;;5301230;28;20040;-70
2022/04/26 07:31:19;;;;;;;6.88;4.30;;;;;;;;;;5302253;28;20031;-70
2022/04/26 07:36:40;;;;;;;11.05;4.90;;;;;;;;;;5302230;28;20403;-68
2022/04/26 07:39:11;;;;;;;11.45;5.53;;;;;;;;;;5302747;28;20031;-69
2022/04/26 07:41:42;;;;;;;13.43;4.97;;;;;;;;;;5301050;28;20273;-70
2022/04/26 07:44:14;;;;;;;12.18;5.47;;;;;;;;;;5302362;28;20055;-69
2022/04/26 07:46:46;;;;;;;8.20;4.10;;;;;;;;;;5302137;28;20254;-69
2022/04/26 07:49:19;;;;;;;7.00;4.35;;;;;;;;;;5301719;28;20039;-69
2022/04/26 07:51:51;;;;;;;9.35;3.95;;;;;;;;;;5302430;28;20490;-69
2022/04/26 07:54:23;;;;;;;8.30;4.30;;;;;;;;;;5301709;28;20053;-69
2022/04/26 07:56:55;;;;;;;8.48;4.20;;;;;;;;;;5301488;28;20058;-69
2022/04/26 07:59:28;;;;;;;7.20;4.20;;;;;;;;;;5302040;28;20452;-69
2022/04/26 08:02:00;;;;;;;11.13;5.07;;;;;;;;;;5303351;28;20028;-69
2022/04/26 08:04:31;;;;;;;9.63;4.80;;;;;;;;;;5305699;28;20374;-70
2022/04/26 08:07:02;;;;;;;5.78;3.95;;;;;;;;;;5306352;28;20266;-70
2022/04/26 08:09:36;;;;;;;12.02;4.88;;;;;;;;;;5304936;28;20300;-69
2022/04/26 08:12:07;;;;;;;7.93;4.60;;;;;;;;;;5306631;28;20016;-69
2022/04/26 08:14:38;;;;;;;9.75;4.93;;;;;;;;;;5305421;28;20063;-69
2022/04/26 08:17:11;;;;;;;11.48;4.93;;;;;;;;;;5305461;28;20028;-69
2022/04/26 08:19:43;;;;;;;14.75;4.88;;;;;;;;;;5305304;28;20261;-70
2022/04/26 08:22:14;;;;;;;6.40;3.38;;;;;;;;;;5306120;28;20396;-69
2022/04/26 08:27:35;;;;;;;8.07;2.92;;;;;;;;;;5305454;28;20024;-69
2022/04/26 08:30:06;;;;;;;9.82;3.38;;;;;;;;;;5304833;28;20024;-70
2022/04/26 08:32:42;;;;;;;7.60;3.10;;;;;;;;;;5304986;28;20031;-70
2022/04/26 08:35:14;;;;;;;9.50;3.10;;;;;;;;;;5305479;28;20040;-70
2022/04/26 08:37:46;;;;;;;9.50;4.10;;;;;;;;;;5304501;28;20043;-70
2022/04/26 08:40:17;;;;;;;9.30;3.22;;;;;;;;;;5305651;28;20043;-71
2022/04/26 08:42:51;;;;;;;6.65;2.58;;;;;;;;;;5305213;28;21056;-69
2022/04/26 08:45:22;;;;;;;9.43;3.25;;;;;;;;;;5304303;28;20117;-69
2022/04/26 08:53:35;;;;;;;8.63;2.50;;;;;;;;;;5304335;28;20024;-69
2022/04/26 08:56:06;;;;;;;9.63;2.70;;;;;;;;;;5305735;28;20386;-69
2022/04/26 08:58:39;;;;;;;14.45;2.53;;;;;;;;;;5304210;28;20033;-70
2022/04/26 09:01:12;;;;;;;6.60;2.45;;;;;;;;;;5305348;28;20060;-69
2022/04/26 09:03:54;;;;;;;4.80;2.03;;;;;;;;;;5304771;28;20023;-70
2022/04/26 09:06:43;;;;;;;5.70;2.15;;;;;;;;;;5304119;28;20020;-70
2022/04/26 09:09:18;;;;;;;11.38;2.22;;;;;;;;;;5305253;28;20450;-69
2022/04/26 09:11:50;;;;;;;7.05;2.47;;;;;;;;;;5304492;28;20387;-69
2022/04/26 09:14:29;;;;;;;7.97;1.88;;;;;;;;;;5303544;28;20073;-70
2022/04/26 09:17:00;;;;;;;;;;;;;;;;;;5305550;28;20036;-70
2022/04/26 09:19:44;;;;;;;6.22;2.53;;;;;;;;;;5303665;28;19911;-69
2022/04/26 09:22:19;;;;;;;5.20;1.27;;;;;;;;;;5304700;28;20023;-70
2022/04/26 09:25:04;;;;;;;5.85;1.55;;;;;;;;;;5304484;28;20026;-69
2022/04/26 09:27:37;;;;;;;5.40;1.50;;;;;;;;;;5303575;28;20106;-70
2022/04/26 09:30:09;;;;;;;4.60;1.10;;;;;;;;;;5304904;28;20024;-70
2022/04/26 09:32:44;;;;;;;11.30;1.60;;;;;;;;;;5303956;28;20012;-70
2022/04/26 09:35:19;;;;;;;5.10;1.35;;;;;;;;;;5304057;28;20083;-70
2022/04/26 09:37:51;;;;;;;6.43;1.00;;;;;;;;;;5304482;28;20019;-70
2022/04/26 09:40:26;;;;;;;3.22;1.02;;;;;;;;;;5303747;28;20012;-70
2022/04/26 09:42:57;;;;;;;5.18;1.20;;;;;;;;;;5304547;28;20408;-69
2022/04/26 09:45:28;;;;;;;2.78;0.90;;;;;;;;;;5304201;28;20128;-69
2022/04/26 09:48:00;;;;;;;5.95;1.20;;;;;;;;;;5303846;28;20394;-69
2022/04/26 09:50:31;;;;;;;5.18;0.98;;;;;;;;;;5303926;28;20020;-70
2022/04/26 09:53:02;;;;;;;6.70;1.15;;;;;;;;;;5304289;28;20020;-69
2022/04/26 09:55:33;;;;;;;7.35;1.30;;;;;;;;;;5302601;28;20119;-70
2022/04/26 09:58:05;;;;;;;5.80;1.20;;;;;;;;;;5304149;28;20015;-70
2022/04/26 10:00:39;;;;;;;4.95;1.30;;;;;;;;;;5303769;28;20462;-70
2022/04/26 10:03:13;;;;;;;4.25;0.98;;;;;;;;;;5303312;28;20331;-70
2022/04/26 10:05:45;;;;;;;5.90;1.17;;;;;;;;;;5303472;28;20032;-70
2022/04/26 10:08:17;;;;;;;7.28;1.40;;;;;;;;;;5304000;28;20030;-70
2022/04/26 10:10:48;;;;;;;11.18;1.60;;;;;;;;;;5302769;28;20031;-70
2022/04/26 10:13:32;;;;;;;11.68;1.48;;;;;;;;;;5303538;28;20016;-70
2022/04/26 10:16:11;;;;;;;5.28;1.35;;;;;;;;;;5302859;28;20040;-70
2022/04/26 10:18:47;;;;;;;6.18;2.13;;;;;;;;;;5303680;28;20019;-71
2022/04/26 10:21:21;;;;;;;6.22;1.20;;;;;;;;;;5303403;28;20068;-71
2022/04/26 10:23:56;;;;;;;6.88;1.33;;;;;;;;;;5302646;28;20309;-70
2022/04/26 10:26:27;;;;;;;3.95;1.50;;;;;;;;;;5302994;28;20021;-70
2022/04/26 10:28:59;;;;;;;6.07;1.50;;;;;;;;;;5303488;28;20455;-70
2022/04/26 10:31:40;;;;;;;5.20;1.33;;;;;;;;;;5302448;28;20073;-70
2022/04/26 10:34:14;;;;;;;5.22;1.73;;;;;;;;;;5303593;28;20050;-69
2022/04/26 10:36:45;;;;;;;6.15;1.85;;;;;;;;;;5302103;28;20024;-68
2022/04/26 10:39:33;;;;;;;6.35;1.77;;;;;;;;;;5303387;28;20020;-70
2022/04/26 10:42:24;;;;;;;7.07;1.40;;;;;;;;;;5303403;28;20023;-71
2022/04/26 10:44:59;;;;;;;6.10;1.27;;;;;;;;;;5302290;28;20020;-70
2022/04/26 10:47:30;;;;;;;3.38;1.38;;;;;;;;;;5302593;28;20047;-71
2022/04/26 10:50:03;;;;;;;3.15;1.30;;;;;;;;;;5303414;28;20046;-70
2022/04/26 10:52:36;;;;;;;5.75;1.30;;;;;;;;;;5301793;28;20024;-70
2022/04/26 10:55:10;;;;;;;3.03;1.40;;;;;;;;;;5303209;28;20094;-70
2022/04/26 10:57:45;;;;;;;4.05;1.08;;;;;;;;;;5302733;28;20515;-70
2022/04/26 11:00:25;;;;;;;4.97;1.30;;;;;;;;;;5302945;28;20502;-70
2022/04/26 11:03:02;;;;;;;2.80;1.13;;;;;;;;;;5303156;28;20020;-71
2022/04/26 11:05:34;;;;;;;5.95;1.33;;;;;;;;;;5301820;28;20356;-70
2022/04/26 11:08:05;;;;;;;3.65;1.42;;;;;;;;;;5302404;28;20012;-70
2022/04/26 11:13:35;;;;;;;49.05;5.65;;;;;;;;;;5301843;28;20479;-70
2022/04/26 11:16:12;;;;;;;8.13;1.95;;;;;;;;;;5302717;28;20043;-69
2022/04/26 11:18:43;;;;;;;5.07;1.55;;;;;;;;;;5302130;28;20016;-69
2022/04/26 11:21:15;;;;;;;3.97;1.30;;;;;;;;;;5301961;28;20024;-69
2022/04/26 11:29:36;;;;;;;5.00;1.70;;;;;;;;;;5301970;28;20028;-71
2022/04/26 11:32:09;;;;;;;4.25;1.33;;;;;;;;;;5302920;28;20024;-71
2022/04/26 11:34:41;;;;;;;4.95;1.52;;;;;;;;;;5301290;28;20882;-71
2022/04/26 11:37:14;;;;;;;5.25;1.75;;;;;;;;;;5306556;28;20020;-71
2022/04/26 11:39:45;;;;;;;3.63;1.58;;;;;;;;;;5306261;28;20016;-70
2022/04/26 11:42:16;;;;;;;5.25;1.58;;;;;;;;;;5306283;28;20027;-71
2022/04/26 11:44:57;;;;;;;6.00;1.60;;;;;;;;;;5306452;28;20024;-71
2022/04/26 11:47:42;;;;;;;5.65;1.88;;;;;;;;;;5305558;28;20107;-71
2022/04/26 11:50:14;;;;;;;6.10;1.52;;;;;;;;;;5306756;28;20020;-71
2022/04/26 11:52:46;;;;;;;3.33;1.35;;;;;;;;;;5306188;28;20026;-70
2022/04/26 11:55:22;;;;;;;5.47;1.75;;;;;;;;;;5305791;28;20031;-71
2022/04/26 11:58:03;;;;;;;6.45;2.35;;;;;;;;;;5306627;28;20039;-71
2022/04/26 12:00:35;;;;;;;4.90;2.30;;;;;;;;;;5306364;28;20112;-71
2022/04/26 12:03:07;;;;;;;4.70;1.50;;;;;;;;;;5305941;28;20510;-71
2022/04/26 12:05:40;;;;;;;5.20;2.03;;;;;;;;;;5305866;28;20028;-71
2022/04/26 12:08:11;;;;;;;2.85;1.60;;;;;;;;;;5305684;28;20016;-71
2022/04/26 12:10:44;;;;;;;4.55;2.00;;;;;;;;;;5305593;28;20024;-70
2022/04/26 12:13:26;;;;;;;4.15;1.60;;;;;;;;;;5306854;28;20089;-71
2022/04/26 12:16:13;;;;;;;4.07;1.65;;;;;;;;;;5305327;28;20055;-71
2022/04/26 12:18:52;;;;;;;3.22;1.33;;;;;;;;;;5305776;28;20452;-71
2022/04/26 12:21:26;;;;;;;2.85;1.38;;;;;;;;;;5305474;28;20024;-71
2022/04/26 12:24:14;;;;;;;4.93;1.80;;;;;;;;;;5305528;28;20069;-70
2022/04/26 12:26:50;;;;;;;4.75;1.48;;;;;;;;;;5305711;28;20055;-71
2022/04/26 12:29:22;;;;;;;3.20;1.27;;;;;;;;;;5304628;28;20051;-71
2022/04/26 12:31:53;;;;;;;3.92;1.45;;;;;;;;;;5305787;28;20100;-70
2022/04/26 12:34:26;;;;;;;3.40;1.35;;;;;;;;;;5304992;28;20441;-71
2022/04/26 12:36:58;;;;;;;1.95;1.00;;;;;;;;;;5305066;28;20028;-69
2022/04/26 12:39:42;;;;;;;3.97;1.40;;;;;;;;;;5305357;28;20463;-70
2022/04/26 12:42:14;;;;;;;6.40;2.00;;;;;;;;;;5305583;28;20016;-70
2022/04/26 12:44:53;;;;;;;4.75;1.88;;;;;;;;;;5304295;28;20098;-70
2022/04/26 12:50:38;;;;;;;3.60;1.38;;;;;;;;;;5305563;28;20110;-70
2022/04/26 12:53:19;;;;;;;5.50;2.17;;;;;;;;;;5305451;28;20035;-70
2022/04/26 12:55:52;;;;;;;2.80;1.13;;;;;;;;;;5305228;28;20177;-70
2022/04/26 12:58:36;;;;;;;3.13;1.50;;;;;;;;;;5304101;28;20018;-70
2022/04/26 13:01:08;;;;;;;6.65;1.60;;;;;;;;;;5305308;28;20024;-70
2022/04/26 13:03:40;;;;;;;3.97;1.90;;;;;;;;;;5304856;28;20018;-70
2022/04/26 13:06:15;;;;;;;5.35;1.92;;;;;;;;;;5304599;28;20016;-70
2022/04/26 13:08:47;;;;;;;3.35;1.83;;;;;;;;;;5304532;28;20016;-69
2022/04/26 13:11:18;;;;;;;3.70;1.83;;;;;;;;;;5304720;28;20040;-70
2022/04/26 13:13:51;;;;;;;3.65;1.58;;;;;;;;;;5303888;28;20082;-70
2022/04/26 13:16:22;;;;;;;5.90;1.58;;;;;;;;;;5304114;28;20048;-69
2022/04/26 13:18:53;;;;;;;7.57;2.00;;;;;;;;;;5304349;28;20063;-70
2022/04/26 13:21:25;;;;;;;6.38;2.10;;;;;;;;;;5304366;28;20103;-70
2022/04/26 13:23:57;;;;;;;2.70;1.60;;;;;;;;;;5304875;28;20016;-70
2022/04/26 13:26:30;;;;;;;5.53;1.60;;;;;;;;;;5303198;28;20141;-69
2022/04/26 13:29:03;;;;;;;7.60;1.70;;;;;;;;;;5305153;28;20470;-70
2022/04/26 13:31:34;;;;;;;5.60;2.03;;;;;;;;;;5304423;28;20016;-71
2022/04/26 13:34:05;;;;;;;3.65;1.48;;;;;;;;;;5303928;28;20501;-70
2022/04/26 13:36:37;;;;;;;3.38;1.27;;;;;;;;;;5303939;28;20305;-71
2022/04/26 13:39:08;;;;;;;6.20;1.95;;;;;;;;;;5304480;28;20463;-70
2022/04/26 13:41:40;;;;;;;5.50;1.63;;;;;;;;;;5303281;28;20471;-70
2022/04/26 13:44:11;;;;;;;3.33;1.30;;;;;;;;;;5304678;28;20077;-70
2022/04/26 13:46:43;;;;;;;5.63;1.58;;;;;;;;;;5303032;28;20379;-70
2022/04/26 13:49:14;;;;;;;4.55;1.40;;;;;;;;;;5304698;28;20267;-69
2022/04/26 13:51:45;;;;;;;4.07;1.40;;;;;;;;;;5303802;28;20023;-70
2022/04/26 13:54:16;;;;;;;4.25;1.55;;;;;;;;;;5303568;28;20024;-69
2022/04/26 13:56:49;;;;;;;3.97;1.20;;;;;;;;;;5303562;28;20270;-70
2022/04/26 13:59:22;;;;;;;4.93;1.48;;;;;;;;;;5303955;28;20091;-70
2022/04/26 14:01:54;;;;;;;6.43;1.33;;;;;;;;;;5303285;28;20020;-70
2022/04/26 14:04:26;;;;;;;6.45;1.40;;;;;;;;;;5303336;28;20015;-72
2022/04/26 14:06:57;;;;;;;8.15;1.20;;;;;;;;;;5304287;28;20348;-71
2022/04/26 14:09:29;;;;;;;4.63;1.15;;;;;;;;;;5302436;28;20027;-71
2022/04/26 14:12:00;;;;;;;3.75;1.02;;;;;;;;;;5303886;28;20509;-71
2022/04/26 14:23:01;;;;;;;5.28;1.00;;;;;;;;;;5302636;28;20025;-69
2022/04/26 14:25:32;;;;;;;4.22;1.15;;;;;;;;;;5302554;28;20020;-69
2022/04/26 14:28:03;;;;;;;7.50;5.15;;;;;;;;;;5285202;28;20386;-70
2022/04/26 14:30:35;;;;;;;7.18;5.18;;;;;;;;;;5301945;28;20024;-70
2022/04/26 14:33:06;;;;;;;3.80;2.00;;;;;;;;;;5303715;28;20020;-69
2022/04/26 14:35:37;;;;;;;3.60;1.50;;;;;;;;;;5302747;28;20043;-70
2022/04/26 14:38:10;;;;;;;11.35;1.63;;;;;;;;;;5302687;28;20825;-69
2022/04/26 14:40:41;;;;;;;2.08;0.98;;;;;;;;;;5302715;28;20377;-70
2022/04/26 14:43:14;;;;;;;8.13;2.35;;;;;;;;;;5302606;28;20103;-70
2022/04/26 14:45:45;;;;;;;5.95;1.15;;;;;;;;;;5302930;28;20430;-70
2022/04/26 14:48:16;;;;;;;4.70;1.40;;;;;;;;;;5303588;28;20016;-70
2022/04/26 14:50:48;;;;;;;3.25;1.17;;;;;;;;;;5301979;28;20099;-70
2022/04/26 14:53:19;;;;;;;4.32;1.23;;;;;;;;;;5302692;28;20425;-70
2022/04/26 14:55:50;;;;;;;4.72;1.15;;;;;;;;;;5302987;28;20471;-69
2022/04/26 14:58:21;;;;;;;4.72;1.33;;;;;;;;;;5301987;28;20016;-70
2022/04/26 15:00:53;;;;;;;2.00;1.00;;;;;;;;;;5303077;28;20586;-70
2022/04/26 15:03:24;;;;;;;3.67;1.00;;;;;;;;;;5302489;28;20266;-70
2022/04/26 15:05:55;;;;;;;2.33;1.08;;;;;;;;;;5302286;28;20301;-70
2022/04/26 15:11:21;;;;;;;3.88;1.17;;;;;;;;;;5272402;28;20063;-70
2022/04/26 15:16:46;;;;;;;4.20;1.38;;;;;;;;;;5270659;28;20048;-71
2022/04/26 15:19:17;;;;;;;2.15;1.20;;;;;;;;;;5302056;28;20012;-70
2022/04/26 15:21:48;;;;;;;2.97;1.10;;;;;;;;;;5302360;28;20527;-71
2022/04/26 15:24:20;;;;;;;2.55;0.80;;;;;;;;;;5302651;28;20020;-71
2022/04/26 15:26:51;;;;;;;3.22;0.90;;;;;;;;;;5301552;28;20048;-71
2022/04/26 15:29:23;;;;;;;2.58;0.70;;;;;;;;;;5302325;28;20274;-71
2022/04/26 15:31:54;;;;;;;1.90;0.90;;;;;;;;;;5302826;28;20572;-71
2022/04/26 15:34:25;;;;;;;2.33;1.00;;;;;;;;;;5301205;28;20282;-70
2022/04/26 15:36:56;;;;;;;3.72;0.80;;;;;;;;;;5302565;28;20036;-71
2022/04/26 15:39:28;;;;;;;2.78;0.80;;;;;;;;;;5301199;28;20323;-69
2022/04/26 15:42:00;;;;;;;2.10;0.63;;;;;;;;;;5302734;28;20027;-70
2022/04/26 15:44:31;;;;;;;2.67;0.70;;;;;;;;;;5301845;28;20016;-70
2022/04/26 15:47:02;;;;;;;2.53;0.60;;;;;;;;;;5301727;28;20069;-70
2022/04/26 15:49:34;;;;;;;4.80;1.00;;;;;;;;;;5301909;28;20613;-70
2022/04/26 15:52:07;;;;;;;1.60;0.68;;;;;;;;;;5302411;28;20017;-70
2022/04/26 15:54:38;;;;;;;1.48;0.60;;;;;;;;;;5301025;28;20711;-70
2022/04/26 15:57:10;;;;;;;1.83;0.60;;;;;;;;;;5302405;28;20019;-69
2022/04/26 15:59:41;;;;;;;3.25;0.60;;;;;;;;;;5301539;28;20317;-70
2022/04/26 16:02:13;;;;;;;2.35;0.60;;;;;;;;;;5301330;28;20486;-70
2022/04/26 16:04:44;;;;;;;2.47;0.70;;;;;;;;;;5301599;28;20472;-70
2022/04/26 16:07:15;;;;;;;3.42;0.75;;;;;;;;;;5301283;28;20153;-70
2022/04/26 16:21:06;;;;;;;3.60;0.68;;;;;;;;;;5302085;28;20040;-70
2022/04/26 16:23:37;;;;;;;1.77;0.60;;;;;;;;;;5303527;28;20377;-70
2022/04/26 16:26:11;;;;;;;3.00;0.60;;;;;;;;;;5305884;28;20327;-70
2022/04/26 16:28:42;;;;;;;4.53;0.70;;;;;;;;;;5304580;28;20044;-70
2022/04/26 16:31:14;;;;;;;4.70;0.60;;;;;;;;;;5305659;28;20047;-71
2022/04/26 16:33:45;;;;;;;2.67;0.60;;;;;;;;;;5305293;28;20262;-70
2022/04/26 16:36:17;;;;;;;2.88;0.50;;;;;;;;;;5305014;28;20060;-70
2022/04/26 16:38:49;;;;;;;4.22;0.80;;;;;;;;;;5305360;28;20701;-69
2022/04/26 16:41:20;;;;;;;2.15;0.70;;;;;;;;;;5305128;28;20055;-71
2022/04/26 16:43:51;;;;;;;2.08;0.80;;;;;;;;;;5304315;28;20509;-70
2022/04/26 16:46:23;;;;;;;3.03;0.60;;;;;;;;;;5305039;28;20016;-70
2022/04/26 16:48:54;;;;;;;3.40;0.60;;;;;;;;;;5305553;28;20024;-69
2022/04/26 16:51:26;;;;;;;2.53;0.60;;;;;;;;;;5303962;28;20016;-70
2022/04/26 16:53:57;;;;;;;3.45;0.60;;;;;;;;;;5305411;28;20254;-69
2022/04/26 16:56:28;;;;;;;5.13;0.70;;;;;;;;;;5303686;28;20012;-70
2022/04/26 16:58:59;;;;;;;1.20;0.60;;;;;;;;;;5305454;28;20095;-70
2022/04/26 17:01:30;;;;;;;3.47;0.77;;;;;;;;;;5304723;28;20262;-70
2022/04/26 17:04:04;;;;;;;1.27;0.50;;;;;;;;;;5304469;28;20262;-70
2022/04/26 17:06:35;;;;;;;3.75;0.60;;;;;;;;;;5304299;28;20258;-70
2022/04/26 17:09:07;;;;;;;2.33;0.70;;;;;;;;;;5305105;28;20026;-70
2022/04/26 17:11:42;;;;;;;2.78;0.90;;;;;;;;;;5303557;28;20342;-70
2022/04/26 17:14:14;;;;;;;2.05;0.70;;;;;;;;;;5304945;28;20084;-69
2022/04/26 17:16:47;;;;;;;1.55;0.60;;;;;;;;;;5303997;28;20063;-70
2022/04/26 17:19:18;;;;;;;2.85;0.70;;;;;;;;;;5303821;28;20020;-70
2022/04/26 17:21:50;;;;;;;3.42;0.70;;;;;;;;;;5304509;28;20095;-70
2022/04/26 17:27:11;;;;;;;1.45;0.60;;;;;;;;;;5304510;28;20032;-69
2022/04/26 17:29:42;;;;;;;3.58;0.63;;;;;;;;;;5303849;28;20471;-70
2022/04/26 17:32:14;;;;;;;7.60;0.75;;;;;;;;;;5303828;28;20065;-70
2022/04/26 17:34:45;;;;;;;4.53;0.65;;;;;;;;;;5303476;28;20028;-70
2022/04/26 17:37:16;;;;;;;2.57;0.80;;;;;;;;;;5304474;28;20425;-70
2022/04/26 17:39:48;;;;;;;3.05;0.93;;;;;;;;;;5302999;28;20353;-70
2022/04/26 17:42:19;;;;;;;4.00;0.60;;;;;;;;;;5303904;28;20012;-71
2022/04/26 17:44:50;;;;;;;2.20;0.68;;;;;;;;;;5303826;28;20081;-71
2022/04/26 17:47:22;;;;;;;2.80;0.80;;;;;;;;;;5302745;28;20352;-71
2022/04/26 17:49:53;;;;;;;5.18;0.70;;;;;;;;;;5304277;28;20020;-70
2022/04/26 17:52:25;;;;;;;2.80;0.90;;;;;;;;;;5303588;28;20016;-71
2022/04/26 17:57:46;;;;;;;2.10;0.90;;;;;;;;;;5303875;28;20127;-70
2022/04/26 18:00:18;;;;;;;4.53;1.27;;;;;;;;;;5303397;28;20399;-70
2022/04/26 18:02:49;;;;;;;8.23;1.60;;;;;;;;;;5303688;28;20261;-70
2022/04/26 18:05:20;;;;;;;6.03;1.35;;;;;;;;;;5303325;28;20054;-70
2022/04/26 18:07:51;;;;;;;5.05;1.13;;;;;;;;;;5302615;28;20099;-69
2022/04/26 18:10:23;;;;;;;3.92;1.10;;;;;;;;;;5303397;28;20277;-71
2022/04/26 18:12:54;;;;;;;11.82;1.98;;;;;;;;;;5303735;28;20013;-70
2022/04/26 18:15:26;;;;;;;6.25;1.33;;;;;;;;;;5302056;28;20469;-69
2022/04/26 18:17:58;;;;;;;7.85;1.17;;;;;;;;;;5303627;28;20067;-69
2022/04/26 18:20:29;;;;;;;5.70;1.33;;;;;;;;;;5303088;28;20024;-70
2022/04/26 18:23:01;;;;;;;5.18;1.38;;;;;;;;;;5302676;28;20072;-70
2022/04/26 18:28:22;;;;;;;5.78;1.17;;;;;;;;;;5302483;28;20020;-70
2022/04/26 18:30:53;;;;;;;3.17;1.30;;;;;;;;;;5303358;28;20375;-70
2022/04/26 18:33:24;;;;;;;3.67;1.00;;;;;;;;;;5302834;28;20016;-70
2022/04/26 18:35:56;;;;;;;3.38;1.45;;;;;;;;;;5302699;28;20373;-70
2022/04/26 18:38:27;;;;;;;4.97;1.20;;;;;;;;;;5302521;28;20055;-70
2022/04/26 18:40:59;;;;;;;5.65;1.67;;;;;;;;;;5303263;28;20465;-70
2022/04/26 18:43:31;;;;;;;7.75;1.88;;;;;;;;;;5301874;28;20341;-70
2022/04/26 18:46:03;;;;;;;3.10;0.90;;;;;;;;;;5302639;28;20095;-70
2022/04/26 18:48:37;;;;;;;4.22;1.33;;;;;;;;;;5302612;28;20032;-69
2022/04/26 18:51:09;;;;;;;4.55;1.35;;;;;;;;;;5302188;28;20016;-70
2022/04/26 18:53:40;;;;;;;4.20;1.70;;;;;;;;;;5302259;28;20020;-70
2022/04/26 18:56:11;;;;;;;5.55;1.33;;;;;;;;;;5302189;28;20494;-69
2022/04/26 18:58:43;;;;;;;6.10;1.10;;;;;;;;;;5302287;28;20079;-70
2022/04/26 19:01:14;;;;;;;5.35;1.67;;;;;;;;;;5302804;28;20126;-70
2022/04/26 19:03:47;;;;;;;5.25;1.20;;;;;;;;;;5301542;28;20104;-70
2022/04/26 19:06:18;;;;;;;4.82;1.50;;;;;;;;;;5302970;28;20106;-70
2022/04/26 19:08:49;;;;;;;4.43;1.30;;;;;;;;;;5302632;28;20099;-70
2022/04/26 19:14:10;;;;;;;4.75;1.42;;;;;;;;;;5303097;28;20371;-68
2022/04/26 19:16:42;;;;;;;3.83;1.23;;;;;;;;;;5302352;28;20024;-69
2022/04/26 19:19:15;;;;;;;3.65;1.40;;;;;;;;;;5283993;28;20048;-70
2022/04/26 19:21:46;;;;;;;2.92;1.40;;;;;;;;;;5302201;28;20020;-69
2022/04/26 19:24:17;;;;;;;4.90;1.48;;;;;;;;;;5301640;28;20107;-70
2022/04/26 19:26:50;;;;;;;5.43;1.30;;;;;;;;;;5302248;28;20028;-71
2022/04/26 19:29:21;;;;;;;6.63;1.77;;;;;;;;;;5301921;28;20262;-70
2022/04/26 19:31:54;;;;;;;6.05;1.73;;;;;;;;;;5301911;28;20016;-69
2022/04/26 19:34:25;;;;;;;5.68;1.83;;;;;;;;;;5301811;28;20365;-70
2022/04/26 19:36:56;;;;;;;4.10;1.70;;;;;;;;;;5302468;28;20431;-69
2022/04/26 19:39:27;;;;;;;5.20;2.00;;;;;;;;;;5300946;28;20651;-70
2022/04/26 19:41:58;;;;;;;6.80;1.73;;;;;;;;;;5302600;28;20772;-69
2022/04/26 19:44:29;;;;;;;3.83;1.50;;;;;;;;;;5301688;28;20032;-71
2022/04/26 19:47:01;;;;;;;5.88;1.70;;;;;;;;;;5301486;28;20284;-70
2022/04/26 19:49:32;;;;;;;4.78;1.60;;;;;;;;;;5301730;28;20309;-70